Time;durP1;ratioP1;P1;durP2;ratioP2;P2;SDS_P1;SDS_P2;PMS_P1;PMS_P2;Temp;Humidity;BMP_temperature;BMP_pressure;BME280_temperature;BME280_humidity;BME280_pressure;Samples;Min_cycle;Max_cycle;Signal;HPM_P1;HPM_P2
2023/04/20 07:01:21;;;;;;;3.80;1.90;;;8.70;99.90;10.50;101897.00;;;;6277406;22;20465;-68
2023/04/20 07:03:47;;;;;;;1.03;0.93;;;8.70;99.90;11.40;101812.00;;;;6278294;22;20165;-68
2023/04/20 07:06:15;;;;;;;1.80;0.30;;;8.90;99.90;11.40;101873.00;;;;6251861;22;20168;-68
2023/04/20 07:08:44;;;;;;;5.77;0.80;;;9.00;99.90;10.90;101863.00;;;;6226250;22;20165;-70
2023/04/20 07:11:13;;;;;;;0.70;0.70;;;8.90;99.90;11.20;101886.00;;;;6278375;22;20195;-70
2023/04/20 07:13:46;;;;;;;0.60;0.60;;;9.00;99.90;11.30;101858.00;;;;6278131;22;20153;-70
2023/04/20 07:16:15;;;;;;;0.97;0.67;;;9.00;99.90;11.80;101874.00;;;;6225886;22;20244;-68
2023/04/20 07:18:40;;;;;;;0.10;0.10;;;9.20;99.90;12.70;101870.00;;;;6278264;22;20139;-68
2023/04/20 07:21:06;;;;;;;0.57;0.50;;;9.40;99.90;11.50;101815.00;;;;6251773;22;20143;-68
2023/04/20 07:23:32;;;;;;;2.03;1.40;;;9.40;99.90;11.20;101871.00;;;;6250939;22;20173;-69
2023/04/20 07:25:58;;;;;;;0.93;0.50;;;9.30;99.90;11.80;101856.00;;;;6251434;22;20164;-68
2023/04/20 07:28:24;;;;;;;0.63;0.60;;;9.10;99.90;11.40;101852.00;;;;6278250;22;20213;-68
2023/04/20 07:30:50;;;;;;;1.87;0.70;;;9.30;99.90;11.70;101855.00;;;;6251452;22;20508;-68
2023/04/20 07:33:17;;;;;;;0.80;0.80;;;9.30;99.90;11.20;101849.00;;;;6250989;22;20143;-68
2023/04/20 07:35:43;;;;;;;1.73;0.57;;;9.10;99.90;11.40;101836.00;;;;6251404;22;20143;-68
2023/04/20 07:38:10;;;;;;;0.60;0.60;;;9.20;99.90;11.70;101841.00;;;;6277689;22;20141;-68
2023/04/20 07:40:39;;;;;;;0.67;0.67;;;9.30;99.90;12.10;101810.00;;;;6251120;22;20146;-68
2023/04/20 07:43:08;;;;;;;3.83;0.40;;;9.50;99.90;12.40;101806.00;;;;6278312;22;20252;-68
2023/04/20 07:45:40;;;;;;;1.10;1.00;;;9.50;99.90;11.90;101828.00;;;;6250879;22;20157;-68
2023/04/20 07:48:08;;;;;;;1.53;1.40;;;9.50;99.90;11.80;101825.00;;;;6251617;22;20136;-68
2023/04/20 07:50:34;;;;;;;0.63;0.63;;;9.60;99.90;11.80;101765.00;;;;6251330;22;20139;-68
2023/04/20 07:53:01;;;;;;;0.10;0.10;;;9.40;99.90;12.20;101810.00;;;;6250853;22;20152;-68
2023/04/20 07:55:37;;;;;;;0.20;0.20;;;9.40;99.90;12.70;101796.00;;;;6225711;22;20250;-70
2023/04/20 07:58:03;;;;;;;1.30;1.13;;;9.70;99.90;11.90;101795.00;;;;6251007;22;20191;-70
2023/04/20 08:00:30;;;;;;;0.50;0.50;;;9.70;99.90;11.40;101785.00;;;;6266571;22;20172;-70
2023/04/20 08:02:56;;;;;;;1.27;1.17;;;9.40;99.90;12.00;101785.00;;;;6276250;22;20165;-70
2023/04/20 08:05:25;;;;;;;0.20;0.20;;;9.60;99.90;12.40;101774.00;;;;6276970;22;20160;-68
2023/04/20 08:07:51;;;;;;;0.50;0.50;;;9.70;99.90;12.30;101772.00;;;;6278012;22;20144;-70
2023/04/20 08:10:17;;;;;;;0.60;0.60;;;9.80;99.90;11.50;101781.00;;;;6276704;22;20155;-70
2023/04/20 08:12:43;;;;;;;2.23;1.73;;;9.70;99.90;10.90;101782.00;;;;6276184;22;20197;-70
2023/04/20 08:15:13;;;;;;;0.77;0.57;;;9.40;99.90;11.40;101756.00;;;;6278116;22;20145;-70
2023/04/20 08:17:39;;;;;;;0.40;0.40;;;9.40;99.90;13.20;101745.00;;;;6276573;22;20145;-68
2023/04/20 08:20:06;;;;;;;3.93;1.60;;;9.80;99.90;12.80;101749.00;;;;6275974;22;20477;-68
2023/04/20 08:22:35;;;;;;;0.20;0.20;;;9.90;99.90;12.70;101745.00;;;;6276606;22;20197;-68
2023/04/20 08:25:01;;;;;;;0.20;0.20;;;10.00;99.90;12.20;101754.00;;;;6277995;22;20197;-70
2023/04/20 08:27:30;;;;;;;3.80;2.50;;;9.90;99.90;11.80;101744.00;;;;6276347;22;20148;-70
2023/04/20 08:29:57;;;;;;;0.67;0.50;;;9.90;99.90;12.50;101731.00;;;;6277510;22;20233;-70
2023/04/20 08:32:25;;;;;;;1.30;0.97;;;9.90;99.90;12.80;101715.00;;;;6276363;22;20164;-70
2023/04/20 08:34:52;;;;;;;0.40;0.40;;;10.10;99.90;12.40;101745.00;;;;6250826;22;20153;-70
2023/04/20 08:37:19;;;;;;;0.30;0.30;;;10.10;99.90;13.00;101727.00;;;;6276354;22;20152;-69
2023/04/20 08:39:45;;;;;;;0.30;0.30;;;10.30;99.90;12.70;101714.00;;;;6276384;22;20232;-68
2023/04/20 08:42:11;;;;;;;0.10;0.10;;;10.20;99.90;13.30;101706.00;;;;6277752;22;20172;-70
2023/04/20 08:44:37;;;;;;;1.30;1.20;;;10.40;99.90;12.90;101704.00;;;;6250622;22;20253;-70
2023/04/20 08:47:12;;;;;;;1.33;1.23;;;10.40;99.90;12.40;101726.00;;;;6276015;22;20150;-69
2023/04/20 08:49:39;;;;;;;0.30;0.30;;;10.40;99.90;14.00;101675.00;;;;6276000;22;20577;-70
2023/04/20 08:52:09;;;;;;;2.20;1.90;;;10.90;99.90;12.10;101726.00;;;;6276345;22;20518;-70
2023/04/20 08:55:00;;;;;;;2.03;1.37;;;10.70;99.90;13.20;101718.00;;;;6275898;22;20623;-70
2023/04/20 08:57:26;;;;;;;0.87;0.70;;;10.60;99.90;12.80;101722.00;;;;6277352;22;20168;-70
2023/04/20 08:59:52;;;;;;;0.63;0.63;;;10.50;99.90;12.60;101726.00;;;;6264135;22;20172;-69
2023/04/20 09:02:21;;;;;;;2.50;2.20;;;10.50;99.90;12.10;101717.00;;;;6220005;23;20230;-70
2023/04/20 09:04:48;;;;;;;1.80;1.70;;;10.20;99.90;12.30;101707.00;;;;6246695;23;20153;-70
2023/04/20 09:07:19;;;;;;;0.87;0.77;;;10.20;99.90;12.80;101663.00;;;;6219854;23;20141;-70
2023/04/20 09:09:59;;;;;;;0.60;0.60;;;10.50;99.90;12.60;101713.00;;;;6246651;23;20149;-70
2023/04/20 09:12:55;;;;;;;3.53;1.13;;;10.20;99.90;13.10;101683.00;;;;6219871;23;20167;-70
2023/04/20 09:15:30;;;;;;;1.60;1.03;;;10.60;99.90;13.30;101686.00;;;;6219537;23;20145;-68
2023/04/20 09:17:57;;;;;;;0.93;0.93;;;10.80;99.90;14.10;101677.00;;;;6219056;23;20167;-70
2023/04/20 09:20:32;;;;;;;0.80;0.80;;;11.20;99.90;12.40;101708.00;;;;6246716;23;20145;-68
2023/04/20 09:23:14;;;;;;;0.30;0.30;;;10.60;99.90;13.70;101683.00;;;;6246695;23;20200;-70
2023/04/20 09:25:42;;;;;;;0.90;0.90;;;10.60;99.90;12.40;101703.00;;;;6219793;23;20481;-70
2023/04/20 09:28:09;;;;;;;1.50;1.40;;;10.50;99.90;12.40;101700.00;;;;6219541;23;20141;-70
2023/04/20 09:30:50;;;;;;;0.87;0.87;;;10.40;99.90;13.00;101688.00;;;;6246620;23;20517;-70
2023/04/20 09:33:18;;;;;;;1.47;1.10;;;10.60;99.90;13.20;101624.00;;;;6220365;23;20145;-70
2023/04/20 09:35:45;;;;;;;1.00;1.00;;;10.70;99.90;13.20;101673.00;;;;6194602;23;20459;-70
2023/04/20 09:38:24;;;;;;;0.20;0.20;;;10.60;99.90;13.20;101688.00;;;;6219815;23;20573;-70
2023/04/20 09:40:50;;;;;;;2.93;2.73;;;10.60;99.90;12.70;101680.00;;;;6246224;23;20143;-69
2023/04/20 09:43:21;;;;;;;0.40;0.40;;;10.40;99.90;13.40;101676.00;;;;6219428;23;20167;-70
2023/04/20 09:45:51;;;;;;;3.57;0.70;;;10.60;99.90;12.80;101679.00;;;;6219817;23;20191;-70
2023/04/20 09:48:30;;;;;;;3.97;2.30;;;10.60;99.90;12.80;101675.00;;;;6219585;23;20161;-70
2023/04/20 09:51:00;;;;;;;0.63;0.40;;;10.60;99.90;13.50;101643.00;;;;6246117;23;20448;-70
2023/04/20 09:53:37;;;;;;;1.97;1.63;;;10.70;99.90;13.80;101584.00;;;;6219643;23;20238;-70
2023/04/20 09:56:07;;;;;;;0.80;0.80;;;11.10;99.90;13.50;101579.00;;;;6219712;23;20149;-70
2023/04/20 09:58:34;;;;;;;0.17;0.17;;;11.10;99.90;14.40;101604.00;;;;6219246;23;20165;-70
2023/04/20 10:01:01;;;;;;;1.27;1.10;;;11.20;99.90;14.50;101562.00;;;;6268775;22;20176;-70
2023/04/20 10:03:29;;;;;;;0.90;0.90;;;11.50;99.90;14.30;101627.00;;;;6274969;22;20181;-70
2023/04/20 10:05:56;;;;;;;1.90;1.23;;;11.30;99.90;14.10;101623.00;;;;6275565;22;20208;-70
2023/04/20 10:08:26;;;;;;;0.30;0.30;;;11.40;99.90;14.30;101635.00;;;;6275393;22;20140;-70
2023/04/20 10:10:55;;;;;;;1.13;1.10;;;11.20;99.90;13.30;101654.00;;;;6276900;22;20144;-70
2023/04/20 10:13:32;;;;;;;1.27;1.00;;;11.00;99.90;12.90;101657.00;;;;6276922;22;20225;-70
2023/04/20 10:15:59;;;;;;;2.83;1.03;;;11.00;99.90;13.60;101632.00;;;;6275364;22;20177;-70
2023/04/20 10:18:25;;;;;;;1.47;1.37;;;10.90;99.90;13.30;101631.00;;;;6275184;22;20149;-70
2023/04/20 10:33:56;;;;;;;1.27;0.73;;;10.50;99.90;14.10;101599.00;;;;5073366;27;2137747;-68
2023/04/20 10:36:35;;;;;;;7.37;1.20;;;11.10;99.90;14.60;101586.00;;;;5120160;28;20184;-68
2023/04/20 10:39:16;;;;;;;0.60;0.60;;;11.40;99.90;14.50;101586.00;;;;5113373;28;20641;-69
2023/04/20 10:41:57;;;;;;;2.37;2.17;;;11.70;99.90;14.10;101551.00;;;;5119712;28;20634;-68
2023/04/20 10:44:24;;;;;;;0.80;0.80;;;11.40;99.90;15.10;101575.00;;;;5098937;28;20197;-69
2023/04/20 10:46:59;;;;;;;1.27;0.83;;;11.70;99.90;14.70;101563.00;;;;5114952;28;20180;-69
2023/04/20 10:49:27;;;;;;;2.30;1.33;;;12.00;99.90;13.70;101533.00;;;;5119319;28;20238;-68
2023/04/20 10:51:54;;;;;;;1.30;0.77;;;11.70;99.90;14.60;101568.00;;;;5126867;28;20252;-68
2023/04/20 10:54:22;;;;;;;0.57;0.43;;;11.80;99.90;14.70;101563.00;;;;5120517;28;20569;-68
2023/04/20 10:56:51;;;;;;;0.87;0.87;;;11.80;99.90;15.50;101505.00;;;;5119386;28;20191;-68
2023/04/20 10:59:20;;;;;;;1.23;1.13;;;12.00;99.90;14.60;101571.00;;;;5106028;28;20603;-68
2023/04/20 11:01:47;;;;;;;1.20;0.63;;;11.80;99.90;15.30;101547.00;;;;5103687;28;20208;-68
2023/04/20 11:04:19;;;;;;;0.10;0.10;;;11.90;99.90;15.20;101546.00;;;;5129557;28;20180;-69
2023/04/20 11:06:47;;;;;;;0.40;0.40;;;12.00;99.90;14.30;101565.00;;;;5112503;28;20263;-69
2023/04/20 11:09:25;;;;;;;0.33;0.33;;;11.70;99.90;14.50;101570.00;;;;5112766;28;20174;-69
2023/04/20 11:12:18;;;;;;;0.50;0.50;;;11.80;99.90;14.90;101548.00;;;;5117884;27;20203;-69
2023/04/20 11:15:01;;;;;;;1.17;1.13;;;12.10;99.90;13.60;101568.00;;;;5111138;28;20284;-68
2023/04/20 11:17:37;;;;;;;0.10;0.10;;;11.70;99.90;15.00;101558.00;;;;5109270;28;20182;-68
2023/04/20 11:20:17;;;;;;;0.30;0.30;;;11.60;99.90;13.60;101589.00;;;;5126003;28;20184;-68
2023/04/20 11:22:59;;;;;;;5.63;0.83;;;11.30;99.90;13.70;101582.00;;;;5101122;28;20185;-68
2023/04/20 11:25:26;;;;;;;0.53;0.53;;;11.30;99.90;15.00;101538.00;;;;5119587;28;20177;-68
2023/04/20 11:28:06;;;;;;;0.50;0.50;;;11.50;99.90;14.80;101552.00;;;;5110429;28;20185;-68
2023/04/20 11:30:45;;;;;;;0.20;0.20;;;11.50;99.90;15.30;101489.00;;;;5108540;28;20267;-68
2023/04/20 11:33:35;;;;;;;0.77;0.63;;;11.80;99.90;14.70;101544.00;;;;5118936;28;20218;-68
2023/04/20 11:36:06;;;;;;;1.73;1.43;;;11.70;99.90;13.40;101593.00;;;;5114391;28;20242;-68
2023/04/20 11:38:36;;;;;;;0.27;0.27;;;11.20;99.90;14.50;101551.00;;;;5118034;28;20212;-68
2023/04/20 11:41:08;;;;;;;0.60;0.60;;;11.20;99.90;14.80;101550.00;;;;5097657;28;20245;-68
2023/04/20 11:43:42;;;;;;;1.23;0.77;;;11.50;99.90;13.80;101575.00;;;;5110873;27;20185;-68
2023/04/20 11:46:21;;;;;;;1.07;0.73;;;11.30;99.90;14.30;101572.00;;;;5084982;28;20287;-68
2023/04/20 11:48:59;;;;;;;0.20;0.20;;;11.20;99.90;14.00;101586.00;;;;5097994;28;20630;-68
2023/04/20 11:51:28;;;;;;;1.93;0.73;;;11.10;99.90;13.70;101591.00;;;;5096344;28;20212;-68
2023/04/20 11:54:08;;;;;;;0.70;0.70;;;10.90;99.90;14.40;101584.00;;;;5093489;28;20542;-68
2023/04/20 11:56:33;;;;;;;0.83;0.83;;;11.00;99.90;14.60;101567.00;;;;5108950;28;20531;-68
2023/04/20 11:58:59;;;;;;;5.60;0.93;;;11.40;99.90;13.60;101582.00;;;;5097766;28;20191;-68
2023/04/20 12:01:25;;;;;;;0.30;0.30;;;11.00;99.90;14.60;101568.00;;;;5106946;28;20184;-68
2023/04/20 12:03:51;;;;;;;1.20;1.03;;;11.10;99.90;14.40;101561.00;;;;5101632;28;20195;-68
2023/04/20 12:06:17;;;;;;;1.33;1.23;;;11.40;99.90;13.50;101576.00;;;;5094122;28;20220;-68
2023/04/20 12:08:51;;;;;;;0.70;0.70;;;11.30;99.90;12.90;101602.00;;;;5103196;28;20198;-68
2023/04/20 12:11:17;;;;;;;1.33;1.23;;;10.80;99.90;12.30;101615.00;;;;5109451;28;20226;-68
2023/04/20 12:13:43;;;;;;;2.10;1.67;;;10.40;99.90;11.70;101625.00;;;;5110679;28;20609;-68
2023/04/20 12:16:09;;;;;;;5.30;1.13;;;10.20;99.90;13.10;101552.00;;;;5114096;28;20182;-68
2023/04/20 12:18:47;;;;;;;0.10;0.10;;;10.50;99.90;14.00;101575.00;;;;5104951;28;20186;-68
2023/04/20 12:21:13;;;;;;;1.03;0.83;;;10.70;99.90;13.10;101528.00;;;;5096669;28;20187;-68
2023/04/20 12:23:43;;;;;;;0.80;0.60;;;10.70;99.90;14.20;101564.00;;;;5094412;28;20187;-68
2023/04/20 12:26:09;;;;;;;0.50;0.50;;;11.00;99.90;14.30;101511.00;;;;5108163;28;20566;-68
2023/04/20 12:28:37;;;;;;;1.00;1.00;;;11.40;99.90;12.40;101588.00;;;;5110530;28;20230;-68
2023/04/20 12:31:03;;;;;;;0.57;0.40;;;10.80;99.90;13.90;101560.00;;;;5106796;28;20208;-68
2023/04/20 12:33:30;;;;;;;0.47;0.47;;;10.90;99.90;15.00;101528.00;;;;5105771;28;20229;-68
2023/04/20 12:35:56;;;;;;;0.20;0.20;;;11.40;99.90;14.50;101542.00;;;;5096689;28;20221;-68
2023/04/20 12:38:24;;;;;;;0.97;0.93;;;11.30;99.90;13.10;101551.00;;;;5106609;28;20203;-68
2023/04/20 12:40:50;;;;;;;0.60;0.60;;;11.20;99.90;13.20;101563.00;;;;5112736;28;20180;-68
2023/04/20 12:43:18;;;;;;;0.43;0.43;;;11.10;99.90;14.50;101543.00;;;;5098680;28;20200;-68
2023/04/20 12:45:57;;;;;;;0.50;0.50;;;11.30;99.90;14.10;101491.00;;;;5110073;28;20253;-68
2023/04/20 12:48:23;;;;;;;0.60;0.60;;;11.60;99.90;13.20;101564.00;;;;5103311;28;20198;-68
2023/04/20 12:50:51;;;;;;;0.60;0.60;;;11.10;99.90;14.60;101529.00;;;;5091311;28;20187;-68
2023/04/20 12:53:18;;;;;;;3.30;1.40;;;11.60;99.90;14.60;101506.00;;;;5093643;28;20217;-68
2023/04/20 12:56:14;;;;;;;0.63;0.63;;;12.00;99.90;15.70;101494.00;;;;5098870;28;20192;-68
2023/04/20 12:59:16;;;;;;;1.47;1.20;;;12.40;99.90;14.00;101528.00;;;;5099068;28;20193;-68
2023/04/20 13:01:42;;;;;;;0.73;0.73;;;12.00;99.90;13.50;101526.00;;;;5101379;28;20202;-68
2023/04/20 13:04:14;;;;;;;0.30;0.30;;;11.50;99.90;14.30;101530.00;;;;5092269;28;20270;-68
2023/04/20 13:06:41;;;;;;;1.20;1.10;;;11.50;99.90;14.60;101532.00;;;;5102478;28;20545;-68
2023/04/20 13:09:25;;;;;;;0.40;0.40;;;11.80;99.90;15.00;101510.00;;;;5106446;28;20206;-68
2023/04/20 13:12:04;;;;;;;1.40;1.30;;;12.10;99.90;13.90;101535.00;;;;5108283;27;20216;-68
2023/04/20 13:14:43;;;;;;;0.40;0.40;;;12.00;99.90;14.80;101521.00;;;;5101008;28;20524;-68
2023/04/20 13:17:11;;;;;;;0.43;0.43;;;12.00;99.90;13.90;101487.00;;;;5100636;28;20260;-68
2023/04/20 13:19:45;;;;;;;0.60;0.60;;;11.70;99.90;14.10;101553.00;;;;5083740;28;20558;-68
2023/04/20 13:22:12;;;;;;;0.97;0.97;;;11.80;99.90;13.40;101536.00;;;;5111286;28;20516;-68
2023/04/20 13:24:50;;;;;;;1.10;1.03;;;11.50;99.90;13.10;101547.00;;;;5109975;28;20226;-68
2023/04/20 13:27:16;;;;;;;0.90;0.90;;;11.20;99.90;13.60;101525.00;;;;5096857;28;20275;-68
2023/04/20 13:30:14;;;;;;;0.57;0.57;;;11.10;99.90;15.00;101511.00;;;;5105631;28;20266;-68
2023/04/20 13:33:59;;;;;;;0.90;0.90;;;11.30;99.90;13.20;101585.00;;;;5104971;28;20212;-68
2023/04/20 13:36:57;;;;;;;0.67;0.67;;;11.10;99.90;13.50;101570.00;;;;5111245;28;20176;-68
2023/04/20 13:39:26;;;;;;;0.43;0.43;;;10.60;99.90;13.90;101577.00;;;;5108799;28;20191;-68
2023/04/20 13:41:52;;;;;;;1.47;1.37;;;10.50;99.90;13.20;101516.00;;;;5093900;28;20241;-68
2023/04/20 13:44:21;;;;;;;0.27;0.27;;;10.50;99.90;14.20;101552.00;;;;5104334;28;20192;-68
2023/04/20 13:46:47;;;;;;;1.27;1.07;;;10.60;99.90;13.60;101492.00;;;;5100393;28;20235;-68
2023/04/20 13:49:15;;;;;;;1.93;1.77;;;10.60;99.90;14.00;101538.00;;;;5105456;28;20184;-68
2023/04/20 13:51:45;;;;;;;2.10;1.00;;;10.70;99.90;13.50;101530.00;;;;5110930;27;20673;-68
2023/04/20 13:54:11;;;;;;;1.53;1.33;;;10.80;99.90;14.40;101528.00;;;;5109255;28;20183;-68
2023/04/20 13:56:43;;;;;;;0.40;0.40;;;11.00;99.90;13.90;101462.00;;;;5113173;28;20668;-68
2023/04/20 13:59:12;;;;;;;1.37;1.27;;;11.10;99.90;13.10;101529.00;;;;5104046;28;20181;-68
2023/04/20 14:01:39;;;;;;;7.53;1.60;;;11.00;99.90;13.20;101532.00;;;;5107092;28;20191;-68
2023/04/20 14:04:05;;;;;;;2.67;1.53;;;10.90;99.90;14.40;101512.00;;;;5100099;28;20540;-68
2023/04/20 14:06:30;;;;;;;1.10;1.10;;;11.30;99.90;14.20;101509.00;;;;5102649;28;20184;-68
2023/04/20 14:09:02;;;;;;;2.40;1.90;;;11.60;99.90;13.70;101474.00;;;;5107467;28;20183;-68
2023/04/20 14:11:54;;;;;;;0.73;0.73;;;11.30;99.90;13.80;101461.00;;;;5104174;28;20219;-68
2023/04/20 14:14:31;;;;;;;1.97;1.40;;;11.00;99.90;12.90;101499.00;;;;5093966;28;20590;-68
2023/04/20 14:17:48;;;;;;;2.10;1.33;;;10.50;99.90;12.50;101503.00;;;;5098330;28;20249;-68
2023/04/20 14:20:30;;;;;;;2.23;1.63;;;10.40;99.90;11.70;101463.00;;;;5099774;28;20228;-68
2023/04/20 14:22:56;;;;;;;1.40;1.30;;;10.00;99.90;10.60;101407.00;;;;5104686;28;20702;-70
2023/04/20 14:25:25;;;;;;;1.90;1.57;;;9.30;99.90;11.30;101400.00;;;;5105716;28;20189;-68
2023/04/20 14:27:54;;;;;;;2.63;1.70;;;9.30;99.90;10.90;101401.00;;;;5107843;28;20184;-68
2023/04/20 14:30:23;;;;;;;0.53;0.53;;;9.30;99.90;11.40;101396.00;;;;5094645;28;20182;-68
2023/04/20 14:32:57;;;;;;;0.73;0.73;;;9.30;99.90;11.30;101407.00;;;;5093310;28;20217;-68
2023/04/20 14:35:45;;;;;;;0.40;0.40;;;9.40;99.90;11.50;101358.00;;;;5095451;28;20184;-68
2023/04/20 14:38:28;;;;;;;0.53;0.53;;;9.60;99.90;12.70;101412.00;;;;5124527;28;20185;-68
2023/04/20 14:41:17;;;;;;;0.83;0.83;;;9.80;99.90;12.10;101394.00;;;;5103231;28;20534;-68
2023/04/20 14:43:43;;;;;;;1.23;1.13;;;9.90;99.90;12.10;101393.00;;;;5105477;28;20217;-68
2023/04/20 14:46:11;;;;;;;1.60;0.93;;;10.00;99.90;12.50;101348.00;;;;5093391;28;20183;-68
2023/04/20 14:48:37;;;;;;;1.23;0.93;;;10.30;99.90;12.50;101387.00;;;;5097689;28;20266;-68
2023/04/20 14:51:57;;;;;;;1.70;1.33;;;10.40;99.90;12.90;101384.00;;;;5097157;28;20192;-68
2023/04/20 14:54:43;;;;;;;0.47;0.47;;;10.70;99.90;13.90;101407.00;;;;5085513;28;20232;-68
2023/04/20 14:57:09;;;;;;;1.07;1.07;;;11.00;99.90;14.70;101409.00;;;;5097165;28;20180;-68
2023/04/20 14:59:40;;;;;;;1.67;1.57;;;11.60;99.90;14.80;101428.00;;;;5096324;28;20638;-68
2023/04/20 15:02:06;;;;;;;3.30;3.00;;;11.80;99.90;13.50;101449.00;;;;5087296;28;20243;-68
2023/04/20 15:04:32;;;;;;;1.60;1.50;;;11.70;99.90;13.60;101440.00;;;;5104331;28;20587;-68
2023/04/20 15:07:42;;;;;;;0.93;0.93;;;11.20;99.90;13.30;101411.00;;;;5100778;28;20259;-68
2023/04/20 15:10:38;;;;;;;0.83;0.83;;;11.40;99.90;13.10;101466.00;;;;5100918;28;20168;-68
2023/04/20 15:13:29;;;;;;;1.67;1.40;;;10.90;99.90;12.60;101412.00;;;;5084186;28;20259;-69
2023/04/20 15:16:04;;;;;;;0.27;0.27;;;10.40;99.90;12.50;101357.00;;;;5096087;28;20183;-68
2023/04/20 15:18:30;;;;;;;1.23;1.23;;;10.10;99.90;11.40;101367.00;;;;5099478;28;20183;-69
2023/04/20 15:20:56;;;;;;;1.93;1.77;;;9.60;99.90;10.40;101292.00;;;;5088680;28;20272;-69
2023/04/20 15:23:23;;;;;;;0.40;0.40;;;9.10;99.90;10.50;101344.00;;;;5103652;28;20186;-71
2023/04/20 15:25:55;;;;;;;0.60;0.60;;;8.80;99.90;10.80;101269.00;;;;5097007;28;20204;-68
2023/04/20 15:28:26;;;;;;;1.60;1.50;;;8.70;99.90;10.20;101268.00;;;;5095122;28;20198;-68
2023/04/20 15:30:57;;;;;;;0.63;0.63;;;8.60;99.90;10.60;101294.00;;;;5103569;28;20176;-68
2023/04/20 15:33:31;;;;;;;1.00;1.00;;;8.60;99.90;11.00;101270.00;;;;5099534;28;20324;-71
2023/04/20 15:36:05;;;;;;;0.30;0.30;;;8.70;99.90;12.10;101256.00;;;;5096918;28;20581;-68
2023/04/20 15:38:58;;;;;;;0.30;0.30;;;8.90;99.90;12.30;101310.00;;;;5097615;28;20856;-68
2023/04/20 15:41:36;;;;;;;1.43;0.80;;;9.20;99.90;11.50;101325.00;;;;5056513;28;20213;-68
2023/04/20 15:44:34;;;;;;;0.70;0.70;;;9.10;99.90;11.90;101313.00;;;;5092566;28;20180;-69
2023/04/20 15:47:02;;;;;;;0.80;0.80;;;9.40;99.90;10.60;101279.00;;;;5105365;28;20200;-69
2023/04/20 15:49:36;;;;;;;1.30;1.03;;;9.00;99.90;10.80;101293.00;;;;5096751;28;20186;-69
2023/04/20 15:52:43;;;;;;;0.30;0.30;;;8.90;99.90;11.00;101317.00;;;;5101985;28;20196;-69
2023/04/20 15:55:34;;;;;;;0.20;0.20;;;9.00;99.90;12.10;101333.00;;;;5106753;28;20305;-70
2023/04/20 15:58:36;;;;;;;0.43;0.43;;;9.20;99.90;11.50;101311.00;;;;5099393;28;20185;-69
2023/04/20 16:02:19;;;;;;;2.30;1.17;;;9.30;99.90;11.70;101340.00;;;;5081768;28;20579;-69
2023/04/20 16:08:44;;;;;;;1.23;1.07;;;9.40;99.90;11.10;101328.00;;;;5008919;28;20244;-69
2023/04/20 16:11:12;;;;;;;0.53;0.53;;;9.30;99.90;11.20;101337.00;;;;5045797;28;20195;-69
2023/04/20 16:14:01;;;;;;;0.30;0.30;;;9.20;99.90;12.00;101332.00;;;;5029670;28;20253;-69
2023/04/20 16:16:32;;;;;;;1.23;1.13;;;9.20;99.90;11.40;101342.00;;;;5019798;28;20585;-68
2023/04/20 16:19:01;;;;;;;1.43;1.23;;;9.40;99.90;12.10;101307.00;;;;5036780;28;20218;-69
2023/04/20 16:21:44;;;;;;;4.70;3.47;;;9.60;99.90;10.60;101335.00;;;;5048653;28;20198;-68
2023/04/20 16:24:17;;;;;;;2.40;1.97;;;9.40;99.90;11.50;101321.00;;;;5098000;28;20295;-69
2023/04/20 16:27:31;;;;;;;6.97;3.10;;;9.50;99.90;11.70;101345.00;;;;5102966;28;20588;-68
2023/04/20 16:30:01;;;;;;;0.20;0.20;;;9.70;99.90;12.60;101338.00;;;;5107970;28;20529;-69
2023/04/20 16:33:09;;;;;;;0.50;0.50;;;9.80;99.90;12.90;101355.00;;;;5102218;28;20222;-69
2023/04/20 16:35:37;;;;;;;1.53;1.43;;;10.20;99.90;11.90;101338.00;;;;5098084;28;20184;-69
2023/04/20 16:38:15;;;;;;;1.30;1.10;;;10.00;99.90;12.10;101301.00;;;;5083810;28;20182;-69
2023/04/20 16:41:23;;;;;;;2.10;1.97;;;9.90;99.90;11.20;101344.00;;;;5097477;28;20246;-69
2023/04/20 16:43:57;;;;;;;5.17;4.70;;;9.70;99.90;11.60;101298.00;;;;5097315;28;20193;-69
2023/04/20 16:46:48;;;;;;;2.57;2.37;;;9.70;99.90;11.20;101327.00;;;;5102939;28;20813;-69
2023/04/20 16:49:26;;;;;;;5.23;2.77;;;9.60;99.90;11.60;101352.00;;;;5101943;28;20632;-68
2023/04/20 16:51:57;;;;;;;1.00;1.00;;;9.70;99.90;12.00;101329.00;;;;5097640;28;20214;-68
2023/04/20 16:54:30;;;;;;;1.23;1.13;;;9.70;99.90;13.10;101350.00;;;;5106215;28;20192;-68
2023/04/20 16:57:17;;;;;;;1.77;1.67;;;10.10;99.90;11.60;101339.00;;;;5105263;28;20206;-69
2023/04/20 17:00:05;;;;;;;1.67;1.37;;;10.10;99.90;12.10;101343.00;;;;5107177;28;20269;-68
2023/04/20 17:02:43;;;;;;;1.43;1.33;;;9.90;99.90;12.00;101323.00;;;;5109289;28;20259;-69
2023/04/20 17:05:32;;;;;;;2.33;1.70;;;10.00;99.90;12.60;101317.00;;;;5082845;28;20604;-68
2023/04/20 17:08:28;;;;;;;0.40;0.40;;;10.00;99.90;11.50;101325.00;;;;5093663;28;20192;-69
2023/04/20 17:11:00;;;;;;;1.33;1.23;;;9.90;99.90;12.40;101288.00;;;;5089095;28;20240;-68
2023/04/20 17:13:46;;;;;;;3.07;2.80;;;10.10;99.90;12.10;101339.00;;;;5098346;28;20288;-69
2023/04/20 17:16:30;;;;;;;0.50;0.50;;;10.20;99.90;13.00;101339.00;;;;5094458;28;20184;-69
2023/04/20 17:19:04;;;;;;;1.70;1.60;;;10.30;99.90;12.80;101326.00;;;;5099686;28;20203;-69
2023/04/20 17:21:31;;;;;;;1.60;0.87;;;10.30;99.90;13.10;101287.00;;;;5096374;28;20233;-69
2023/04/20 17:24:18;;;;;;;0.73;0.70;;;10.40;99.90;13.00;101347.00;;;;5095338;28;20190;-69
2023/04/20 17:26:46;;;;;;;2.60;2.40;;;10.60;99.90;12.00;101329.00;;;;5098487;28;20176;-68
2023/04/20 17:29:37;;;;;;;1.60;1.50;;;10.30;99.90;12.70;101340.00;;;;5099123;28;20193;-69
2023/04/20 17:32:20;;;;;;;2.73;2.37;;;10.30;99.90;12.70;101321.00;;;;5092503;28;20212;-69
2023/04/20 17:34:54;;;;;;;1.70;1.60;;;10.40;99.90;12.40;101345.00;;;;5083009;28;20202;-68
2023/04/20 17:37:41;;;;;;;0.23;0.23;;;10.40;99.90;13.30;101343.00;;;;5092777;28;20617;-69
2023/04/20 17:40:13;;;;;;;2.90;2.43;;;10.60;99.90;12.50;101333.00;;;;5105557;28;20235;-68
2023/04/20 17:43:02;;;;;;;1.50;0.73;;;10.60;99.90;13.30;101292.00;;;;5120128;27;20193;-69
2023/04/20 17:45:33;;;;;;;3.07;2.83;;;10.70;99.90;12.90;101333.00;;;;5100317;28;20526;-68
2023/04/20 17:48:34;;;;;;;3.03;1.20;;;10.80;99.90;14.00;101358.00;;;;5092474;28;20718;-69
2023/04/20 17:51:22;;;;;;;0.73;0.73;;;11.00;99.90;13.90;101342.00;;;;5082354;28;20191;-68
2023/04/20 17:53:55;;;;;;;1.90;1.80;;;11.10;99.90;13.40;101335.00;;;;5088571;28;20225;-69
2023/04/20 17:56:50;;;;;;;0.30;0.30;;;11.10;99.90;13.10;101294.00;;;;5083829;28;20213;-68
2023/04/20 17:59:44;;;;;;;2.73;2.37;;;11.00;99.90;12.80;101350.00;;;;5096741;27;20254;-69
2023/04/20 18:02:28;;;;;;;0.63;0.63;;;10.80;99.90;13.60;101357.00;;;;5095578;28;20199;-69
2023/04/20 18:05:17;;;;;;;2.57;2.37;;;10.90;99.90;12.40;101347.00;;;;5103439;28;20213;-69
2023/04/20 18:08:08;;;;;;;1.63;1.53;;;10.60;99.90;13.10;101369.00;;;;5097780;28;20191;-68
2023/04/20 18:11:00;;;;;;;3.33;2.83;;;10.70;99.90;12.10;101356.00;;;;5089163;28;20197;-69
2023/04/20 18:13:34;;;;;;;1.20;1.20;;;10.60;99.90;13.40;101314.00;;;;5084620;28;20693;-68
2023/04/20 18:16:05;;;;;;;2.67;2.47;;;10.80;99.90;12.40;101383.00;;;;5098666;28;20202;-68
2023/04/20 18:18:52;;;;;;;0.40;0.40;;;10.70;99.90;13.00;101372.00;;;;5101688;28;20237;-68
2023/04/20 18:21:18;;;;;;;0.80;0.80;;;10.70;99.90;13.40;101366.00;;;;5104768;27;20180;-69
2023/04/20 18:23:54;;;;;;;0.97;0.97;;;10.80;99.90;12.70;101319.00;;;;5098967;28;20211;-69
2023/04/20 18:26:56;;;;;;;1.27;1.17;;;10.70;99.90;13.00;101380.00;;;;5083144;28;20242;-69
2023/04/20 18:29:58;;;;;;;1.23;1.17;;;10.70;99.90;14.30;101374.00;;;;5095147;28;20558;-69
2023/04/20 18:33:03;;;;;;;0.77;0.77;;;11.00;99.90;13.70;101405.00;;;;5089260;28;20214;-69
2023/04/20 18:35:51;;;;;;;0.80;0.80;;;11.00;99.90;14.10;101407.00;;;;5098768;28;20653;-69
2023/04/20 18:38:16;;;;;;;0.67;0.67;;;11.10;99.90;12.90;101391.00;;;;5096022;28;20199;-68
2023/04/20 18:41:08;;;;;;;0.77;0.77;;;10.70;99.90;13.20;101343.00;;;;5094864;28;20180;-69
2023/04/20 18:44:27;;;;;;;1.03;0.97;;;10.70;99.90;13.60;101402.00;;;;5088584;28;20191;-68